sensor_id;sensor_type;location;lat;lon;timestamp;temperature;humidity
11474;DHT22;5793;52.238;13.438;2023-04-07T00:00:05;-0.30;99.90
11474;DHT22;5793;52.238;13.438;2023-04-07T00:02:33;-0.30;99.90
11474;DHT22;5793;52.238;13.438;2023-04-07T00:05:02;-0.20;99.90
11474;DHT22;5793;52.238;13.438;2023-04-07T00:07:30;-0.30;99.90
11474;DHT22;5793;52.238;13.438;2023-04-07T00:10:12;-0.30;99.90
11474;DHT22;5793;52.238;13.438;2023-04-07T00:12:39;-0.20;99.90
11474;DHT22;5793;52.238;13.438;2023-04-07T00:15:08;-0.30;99.90
11474;DHT22;5793;52.238;13.438;2023-04-07T00:17:36;-0.30;99.90
11474;DHT22;5793;52.238;13.438;2023-04-07T00:20:05;-0.30;99.90
11474;DHT22;5793;52.238;13.438;2023-04-07T00:22:33;-0.40;99.90
11474;DHT22;5793;52.238;13.438;2023-04-07T00:25:01;-0.60;99.90
11474;DHT22;5793;52.238;13.438;2023-04-07T00:27:30;-0.60;99.90
11474;DHT22;5793;52.238;13.438;2023-04-07T00:29:58;-0.70;99.90
11474;DHT22;5793;52.238;13.438;2023-04-07T00:32:26;-0.70;99.90
11474;DHT22;5793;52.238;13.438;2023-04-07T00:34:54;-0.80;99.90
11474;DHT22;5793;52.238;13.438;2023-04-07T00:37:21;-0.90;99.90
11474;DHT22;5793;52.238;13.438;2023-04-07T00:39:51;-1.00;99.90
11474;DHT22;5793;52.238;13.438;2023-04-07T00:42:19;-1.10;99.90
11474;DHT22;5793;52.238;13.438;2023-04-07T00:44:48;-1.10;99.90
11474;DHT22;5793;52.238;13.438;2023-04-07T00:47:16;-1.10;99.90
11474;DHT22;5793;52.238;13.438;2023-04-07T00:49:44;-1.20;99.90
11474;DHT22;5793;52.238;13.438;2023-04-07T00:52:13;-1.30;99.90
11474;DHT22;5793;52.238;13.438;2023-04-07T00:54:41;-1.30;99.90
11474;DHT22;5793;52.238;13.438;2023-04-07T00:57:12;-1.30;99.90
11474;DHT22;5793;52.238;13.438;2023-04-07T00:59:40;-1.30;99.90
11474;DHT22;5793;52.238;13.438;2023-04-07T01:02:13;-1.30;99.90
11474;DHT22;5793;52.238;13.438;2023-04-07T01:04:46;-1.40;99.90
11474;DHT22;5793;52.238;13.438;2023-04-07T01:07:20;-1.30;99.90
11474;DHT22;5793;52.238;13.438;2023-04-07T01:09:54;-1.20;99.90
11474;DHT22;5793;52.238;13.438;2023-04-07T01:12:32;-1.30;99.90
11474;DHT22;5793;52.238;13.438;2023-04-07T01:15:08;-1.40;99.90
11474;DHT22;5793;52.238;13.438;2023-04-07T01:17:42;-1.40;99.90
11474;DHT22;5793;52.238;13.438;2023-04-07T01:20:14;-1.40;99.90
11474;DHT22;5793;52.238;13.438;2023-04-07T01:22:46;-1.50;99.90
11474;DHT22;5793;52.238;13.438;2023-04-07T01:25:31;-1.50;99.90
11474;DHT22;5793;52.238;13.438;2023-04-07T01:28:14;-1.60;99.90
11474;DHT22;5793;52.238;13.438;2023-04-07T01:30:54;-1.50;99.90
11474;DHT22;5793;52.238;13.438;2023-04-07T01:33:24;-1.50;99.90
11474;DHT22;5793;52.238;13.438;2023-04-07T01:35:54;-1.50;99.90
11474;DHT22;5793;52.238;13.438;2023-04-07T01:38:24;-1.60;99.90
11474;DHT22;5793;52.238;13.438;2023-04-07T01:40:53;-1.60;99.90
11474;DHT22;5793;52.238;13.438;2023-04-07T01:43:22;-1.60;99.90
11474;DHT22;5793;52.238;13.438;2023-04-07T01:45:53;-1.50;99.90
11474;DHT22;5793;52.238;13.438;2023-04-07T01:48:21;-1.60;99.90
11474;DHT22;5793;52.238;13.438;2023-04-07T01:50:50;-1.60;99.90
11474;DHT22;5793;52.238;13.438;2023-04-07T01:53:18;-1.50;99.90
11474;DHT22;5793;52.238;13.438;2023-04-07T01:55:46;-1.30;99.90
11474;DHT22;5793;52.238;13.438;2023-04-07T01:58:14;-1.20;99.90
11474;DHT22;5793;52.238;13.438;2023-04-07T02:00:42;-1.10;99.90
11474;DHT22;5793;52.238;13.438;2023-04-07T02:03:14;-1.10;99.90
11474;DHT22;5793;52.238;13.438;2023-04-07T02:05:49;-1.20;99.90
11474;DHT22;5793;52.238;13.438;2023-04-07T02:08:20;-1.30;99.90
11474;DHT22;5793;52.238;13.438;2023-04-07T02:10:50;-1.30;99.90
11474;DHT22;5793;52.238;13.438;2023-04-07T02:13:19;-1.30;99.90
11474;DHT22;5793;52.238;13.438;2023-04-07T02:15:47;-1.30;99.90
11474;DHT22;5793;52.238;13.438;2023-04-07T02:18:18;-1.30;99.90
11474;DHT22;5793;52.238;13.438;2023-04-07T02:20:47;-1.40;99.90
11474;DHT22;5793;52.238;13.438;2023-04-07T02:23:15;-1.40;99.90
11474;DHT22;5793;52.238;13.438;2023-04-07T02:25:43;-1.40;99.90
11474;DHT22;5793;52.238;13.438;2023-04-07T02:28:11;-1.40;99.90
11474;DHT22;5793;52.238;13.438;2023-04-07T02:30:38;-1.20;99.90
11474;DHT22;5793;52.238;13.438;2023-04-07T02:33:06;-1.10;99.90
11474;DHT22;5793;52.238;13.438;2023-04-07T02:35:36;-1.00;99.90
11474;DHT22;5793;52.238;13.438;2023-04-07T02:38:03;-0.90;99.90
11474;DHT22;5793;52.238;13.438;2023-04-07T02:40:31;-0.90;99.90
11474;DHT22;5793;52.238;13.438;2023-04-07T02:42:59;-1.10;99.90
11474;DHT22;5793;52.238;13.438;2023-04-07T02:45:27;-1.00;99.90
11474;DHT22;5793;52.238;13.438;2023-04-07T02:47:55;-1.10;99.90
11474;DHT22;5793;52.238;13.438;2023-04-07T02:50:23;-1.30;99.90
11474;DHT22;5793;52.238;13.438;2023-04-07T02:52:53;-1.30;99.90
11474;DHT22;5793;52.238;13.438;2023-04-07T02:55:20;-1.40;99.90
11474;DHT22;5793;52.238;13.438;2023-04-07T02:57:48;-1.30;99.90
11474;DHT22;5793;52.238;13.438;2023-04-07T03:00:16;-1.40;99.90
11474;DHT22;5793;52.238;13.438;2023-04-07T03:02:44;-1.50;99.90
11474;DHT22;5793;52.238;13.438;2023-04-07T03:05:12;-1.40;99.90
11474;DHT22;5793;52.238;13.438;2023-04-07T03:07:40;-1.30;99.90
11474;DHT22;5793;52.238;13.438;2023-04-07T03:10:09;-1.50;99.90
11474;DHT22;5793;52.238;13.438;2023-04-07T03:12:37;-1.50;99.90
11474;DHT22;5793;52.238;13.438;2023-04-07T03:15:06;-1.50;99.90
11474;DHT22;5793;52.238;13.438;2023-04-07T03:17:34;-1.60;99.90
11474;DHT22;5793;52.238;13.438;2023-04-07T03:20:02;-1.50;99.90
11474;DHT22;5793;52.238;13.438;2023-04-07T03:22:30;-1.50;99.90
11474;DHT22;5793;52.238;13.438;2023-04-07T03:24:58;-1.40;99.90
11474;DHT22;5793;52.238;13.438;2023-04-07T03:27:27;-1.30;99.90
11474;DHT22;5793;52.238;13.438;2023-04-07T03:29:56;-1.30;99.90
11474;DHT22;5793;52.238;13.438;2023-04-07T03:32:24;-1.40;99.90
11474;DHT22;5793;52.238;13.438;2023-04-07T03:34:51;-1.40;99.90
11474;DHT22;5793;52.238;13.438;2023-04-07T03:37:19;-1.40;99.90
11474;DHT22;5793;52.238;13.438;2023-04-07T03:39:47;-1.40;99.90
11474;DHT22;5793;52.238;13.438;2023-04-07T03:42:17;-1.30;99.90
11474;DHT22;5793;52.238;13.438;2023-04-07T03:44:46;-1.40;99.90
11474;DHT22;5793;52.238;13.438;2023-04-07T03:47:14;-1.40;99.90
11474;DHT22;5793;52.238;13.438;2023-04-07T03:49:42;-1.40;99.90
11474;DHT22;5793;52.238;13.438;2023-04-07T03:52:10;-1.40;99.90
11474;DHT22;5793;52.238;13.438;2023-04-07T03:54:37;-1.40;99.90
11474;DHT22;5793;52.238;13.438;2023-04-07T03:57:05;-1.40;99.90
11474;DHT22;5793;52.238;13.438;2023-04-07T03:59:34;-1.30;99.90
11474;DHT22;5793;52.238;13.438;2023-04-07T04:02:03;-1.30;99.90
11474;DHT22;5793;52.238;13.438;2023-04-07T04:04:31;-1.30;99.90
11474;DHT22;5793;52.238;13.438;2023-04-07T04:06:59;-1.30;99.90
11474;DHT22;5793;52.238;13.438;2023-04-07T04:09:27;-1.30;99.90
11474;DHT22;5793;52.238;13.438;2023-04-07T04:11:55;-1.20;99.90
11474;DHT22;5793;52.238;13.438;2023-04-07T04:14:23;-1.20;99.90
11474;DHT22;5793;52.238;13.438;2023-04-07T04:16:51;-1.10;99.90
11474;DHT22;5793;52.238;13.438;2023-04-07T04:19:20;-1.10;99.90
11474;DHT22;5793;52.238;13.438;2023-04-07T04:21:47;-1.10;99.90
11474;DHT22;5793;52.238;13.438;2023-04-07T04:24:15;-1.10;99.90
11474;DHT22;5793;52.238;13.438;2023-04-07T04:26:43;-1.10;99.90
11474;DHT22;5793;52.238;13.438;2023-04-07T04:29:11;-1.10;99.90
11474;DHT22;5793;52.238;13.438;2023-04-07T04:31:39;-1.10;99.90
11474;DHT22;5793;52.238;13.438;2023-04-07T04:34:07;-1.10;99.90
11474;DHT22;5793;52.238;13.438;2023-04-07T04:36:36;-1.10;99.90
11474;DHT22;5793;52.238;13.438;2023-04-07T04:39:04;-1.00;99.90
11474;DHT22;5793;52.238;13.438;2023-04-07T04:41:32;-0.80;99.90
11474;DHT22;5793;52.238;13.438;2023-04-07T04:44:00;-0.60;99.90
11474;DHT22;5793;52.238;13.438;2023-04-07T04:46:27;-0.40;99.90
11474;DHT22;5793;52.238;13.438;2023-04-07T04:48:55;-0.30;99.90
11474;DHT22;5793;52.238;13.438;2023-04-07T04:51:23;-0.20;99.90
11474;DHT22;5793;52.238;13.438;2023-04-07T04:53:52;-0.10;99.90
11474;DHT22;5793;52.238;13.438;2023-04-07T04:56:21;-0.10;99.90
11474;DHT22;5793;52.238;13.438;2023-04-07T04:58:49;-0.10;99.90
11474;DHT22;5793;52.238;13.438;2023-04-07T05:01:16;-0.10;99.90
11474;DHT22;5793;52.238;13.438;2023-04-07T05:03:44;0.10;99.90
11474;DHT22;5793;52.238;13.438;2023-04-07T05:06:12;0.20;99.90
11474;DHT22;5793;52.238;13.438;2023-04-07T05:08:40;0.40;99.90
11474;DHT22;5793;52.238;13.438;2023-04-07T05:11:10;0.50;99.90
11474;DHT22;5793;52.238;13.438;2023-04-07T05:13:38;0.60;99.90
11474;DHT22;5793;52.238;13.438;2023-04-07T05:16:06;0.70;99.90
11474;DHT22;5793;52.238;13.438;2023-04-07T05:18:34;0.80;99.90
11474;DHT22;5793;52.238;13.438;2023-04-07T05:21:02;0.70;99.90
11474;DHT22;5793;52.238;13.438;2023-04-07T05:23:30;0.60;99.90
11474;DHT22;5793;52.238;13.438;2023-04-07T05:25:57;0.60;99.90
11474;DHT22;5793;52.238;13.438;2023-04-07T05:28:26;0.50;99.90
11474;DHT22;5793;52.238;13.438;2023-04-07T05:30:54;0.70;99.90
11474;DHT22;5793;52.238;13.438;2023-04-07T05:33:22;0.70;99.90
11474;DHT22;5793;52.238;13.438;2023-04-07T05:35:50;0.70;99.90
11474;DHT22;5793;52.238;13.438;2023-04-07T05:38:17;0.70;99.90
11474;DHT22;5793;52.238;13.438;2023-04-07T05:40:46;0.70;99.90
11474;DHT22;5793;52.238;13.438;2023-04-07T05:43:13;0.80;99.90
11474;DHT22;5793;52.238;13.438;2023-04-07T05:45:43;0.90;99.90
11474;DHT22;5793;52.238;13.438;2023-04-07T05:48:10;0.90;99.90
11474;DHT22;5793;52.238;13.438;2023-04-07T05:50:38;1.00;99.90
11474;DHT22;5793;52.238;13.438;2023-04-07T05:53:06;1.10;99.90
11474;DHT22;5793;52.238;13.438;2023-04-07T05:55:34;1.20;99.90
11474;DHT22;5793;52.238;13.438;2023-04-07T05:58:02;1.30;99.90
11474;DHT22;5793;52.238;13.438;2023-04-07T06:00:30;1.50;99.90
11474;DHT22;5793;52.238;13.438;2023-04-07T06:02:59;1.70;99.90
11474;DHT22;5793;52.238;13.438;2023-04-07T06:05:27;1.90;99.90
11474;DHT22;5793;52.238;13.438;2023-04-07T06:07:55;2.20;99.90
11474;DHT22;5793;52.238;13.438;2023-04-07T06:10:23;2.40;99.90
11474;DHT22;5793;52.238;13.438;2023-04-07T06:12:50;2.60;99.90
11474;DHT22;5793;52.238;13.438;2023-04-07T06:15:18;2.80;99.90
11474;DHT22;5793;52.238;13.438;2023-04-07T06:17:46;3.10;99.90
11474;DHT22;5793;52.238;13.438;2023-04-07T06:20:15;3.30;99.90
11474;DHT22;5793;52.238;13.438;2023-04-07T06:22:43;3.40;99.90
11474;DHT22;5793;52.238;13.438;2023-04-07T06:25:10;3.40;99.90
11474;DHT22;5793;52.238;13.438;2023-04-07T06:27:38;3.40;99.90
11474;DHT22;5793;52.238;13.438;2023-04-07T06:30:07;3.30;99.90
11474;DHT22;5793;52.238;13.438;2023-04-07T06:32:35;3.20;99.90
11474;DHT22;5793;52.238;13.438;2023-04-07T06:35:04;3.30;99.90
11474;DHT22;5793;52.238;13.438;2023-04-07T06:37:33;3.20;99.90
11474;DHT22;5793;52.238;13.438;2023-04-07T06:40:01;3.20;99.90
11474;DHT22;5793;52.238;13.438;2023-04-07T06:42:29;3.20;99.90
11474;DHT22;5793;52.238;13.438;2023-04-07T06:44:57;3.20;99.90
11474;DHT22;5793;52.238;13.438;2023-04-07T06:47:24;3.20;99.90
11474;DHT22;5793;52.238;13.438;2023-04-07T06:49:53;3.20;99.90
11474;DHT22;5793;52.238;13.438;2023-04-07T06:52:21;3.30;99.90
11474;DHT22;5793;52.238;13.438;2023-04-07T06:54:50;3.50;99.90
11474;DHT22;5793;52.238;13.438;2023-04-07T06:57:18;3.80;99.90
11474;DHT22;5793;52.238;13.438;2023-04-07T06:59:46;4.00;99.90
11474;DHT22;5793;52.238;13.438;2023-04-07T07:02:14;4.40;99.90
11474;DHT22;5793;52.238;13.438;2023-04-07T07:04:42;4.50;99.90
11474;DHT22;5793;52.238;13.438;2023-04-07T07:07:09;4.70;99.90
11474;DHT22;5793;52.238;13.438;2023-04-07T07:09:37;4.90;99.90
11474;DHT22;5793;52.238;13.438;2023-04-07T07:12:07;5.20;99.90
11474;DHT22;5793;52.238;13.438;2023-04-07T07:14:34;5.20;99.90
11474;DHT22;5793;52.238;13.438;2023-04-07T07:17:02;5.30;99.90
11474;DHT22;5793;52.238;13.438;2023-04-07T07:19:30;5.40;99.90
11474;DHT22;5793;52.238;13.438;2023-04-07T07:21:58;5.40;99.90
11474;DHT22;5793;52.238;13.438;2023-04-07T07:24:26;5.50;99.90
11474;DHT22;5793;52.238;13.438;2023-04-07T07:26:54;5.50;99.90
11474;DHT22;5793;52.238;13.438;2023-04-07T07:29:24;5.40;99.90
11474;DHT22;5793;52.238;13.438;2023-04-07T07:31:52;5.80;99.90
11474;DHT22;5793;52.238;13.438;2023-04-07T07:34:21;6.30;99.90
11474;DHT22;5793;52.238;13.438;2023-04-07T07:36:49;6.90;99.90
11474;DHT22;5793;52.238;13.438;2023-04-07T07:39:17;7.30;99.90
11474;DHT22;5793;52.238;13.438;2023-04-07T07:41:45;7.60;99.90
11474;DHT22;5793;52.238;13.438;2023-04-07T07:44:13;7.80;99.90
11474;DHT22;5793;52.238;13.438;2023-04-07T07:46:42;8.20;99.90
11474;DHT22;5793;52.238;13.438;2023-04-07T07:49:10;8.40;99.90
11474;DHT22;5793;52.238;13.438;2023-04-07T07:51:37;8.00;99.90
11474;DHT22;5793;52.238;13.438;2023-04-07T07:54:05;7.90;99.90
11474;DHT22;5793;52.238;13.438;2023-04-07T07:56:33;8.00;99.90
11474;DHT22;5793;52.238;13.438;2023-04-07T07:59:01;8.20;99.90
11474;DHT22;5793;52.238;13.438;2023-04-07T08:01:29;8.20;99.90
11474;DHT22;5793;52.238;13.438;2023-04-07T08:03:58;8.20;99.90
11474;DHT22;5793;52.238;13.438;2023-04-07T08:06:26;8.20;99.90
11474;DHT22;5793;52.238;13.438;2023-04-07T08:08:57;8.30;99.90
11474;DHT22;5793;52.238;13.438;2023-04-07T08:11:25;8.20;99.90
11474;DHT22;5793;52.238;13.438;2023-04-07T08:13:52;7.90;99.90
11474;DHT22;5793;52.238;13.438;2023-04-07T08:16:21;8.00;99.90
11474;DHT22;5793;52.238;13.438;2023-04-07T08:18:49;8.20;99.90
11474;DHT22;5793;52.238;13.438;2023-04-07T08:21:18;8.00;99.90
11474;DHT22;5793;52.238;13.438;2023-04-07T08:23:46;8.40;99.90
11474;DHT22;5793;52.238;13.438;2023-04-07T08:26:14;8.50;99.90
11474;DHT22;5793;52.238;13.438;2023-04-07T08:28:42;8.40;99.90
11474;DHT22;5793;52.238;13.438;2023-04-07T08:31:10;8.40;99.90
11474;DHT22;5793;52.238;13.438;2023-04-07T08:33:38;8.40;99.90
11474;DHT22;5793;52.238;13.438;2023-04-07T08:36:06;8.70;99.90
11474;DHT22;5793;52.238;13.438;2023-04-07T08:38:35;8.60;99.90
11474;DHT22;5793;52.238;13.438;2023-04-07T08:41:06;8.50;99.90
11474;DHT22;5793;52.238;13.438;2023-04-07T08:43:35;8.40;99.90
11474;DHT22;5793;52.238;13.438;2023-04-07T08:46:04;8.20;99.90
11474;DHT22;5793;52.238;13.438;2023-04-07T08:48:33;7.90;99.90
11474;DHT22;5793;52.238;13.438;2023-04-07T08:51:04;7.50;99.90
11474;DHT22;5793;52.238;13.438;2023-04-07T08:53:42;7.50;99.90
11474;DHT22;5793;52.238;13.438;2023-04-07T08:56:12;7.70;99.90
11474;DHT22;5793;52.238;13.438;2023-04-07T08:58:40;7.70;99.90
11474;DHT22;5793;52.238;13.438;2023-04-07T09:01:08;7.80;99.90
11474;DHT22;5793;52.238;13.438;2023-04-07T09:03:37;8.00;99.90
11474;DHT22;5793;52.238;13.438;2023-04-07T09:06:05;8.50;99.90
11474;DHT22;5793;52.238;13.438;2023-04-07T09:08:34;8.90;99.90
11474;DHT22;5793;52.238;13.438;2023-04-07T09:11:03;9.20;99.90
11474;DHT22;5793;52.238;13.438;2023-04-07T09:13:30;9.40;99.90
11474;DHT22;5793;52.238;13.438;2023-04-07T09:16:00;9.50;99.90
11474;DHT22;5793;52.238;13.438;2023-04-07T09:18:29;9.50;99.90
11474;DHT22;5793;52.238;13.438;2023-04-07T09:20:58;9.50;99.90
11474;DHT22;5793;52.238;13.438;2023-04-07T09:23:28;9.30;99.90
11474;DHT22;5793;52.238;13.438;2023-04-07T09:25:59;9.20;99.90
11474;DHT22;5793;52.238;13.438;2023-04-07T09:28:43;9.20;99.90
11474;DHT22;5793;52.238;13.438;2023-04-07T09:31:11;9.20;99.90
11474;DHT22;5793;52.238;13.438;2023-04-07T09:33:39;9.00;99.90
11474;DHT22;5793;52.238;13.438;2023-04-07T09:36:07;8.80;99.90
11474;DHT22;5793;52.238;13.438;2023-04-07T09:38:37;8.70;99.90
11474;DHT22;5793;52.238;13.438;2023-04-07T09:41:07;8.30;99.90
11474;DHT22;5793;52.238;13.438;2023-04-07T09:43:37;8.20;99.90
11474;DHT22;5793;52.238;13.438;2023-04-07T09:46:09;8.30;99.90
11474;DHT22;5793;52.238;13.438;2023-04-07T09:48:38;8.40;99.90
11474;DHT22;5793;52.238;13.438;2023-04-07T09:51:08;8.10;99.90
11474;DHT22;5793;52.238;13.438;2023-04-07T09:53:43;8.00;99.90
11474;DHT22;5793;52.238;13.438;2023-04-07T09:56:14;8.20;99.90
11474;DHT22;5793;52.238;13.438;2023-04-07T09:58:44;8.40;99.90
11474;DHT22;5793;52.238;13.438;2023-04-07T10:01:14;8.60;99.90
11474;DHT22;5793;52.238;13.438;2023-04-07T10:03:43;8.50;99.90
11474;DHT22;5793;52.238;13.438;2023-04-07T10:06:12;8.50;99.90
11474;DHT22;5793;52.238;13.438;2023-04-07T10:08:41;8.50;99.90
11474;DHT22;5793;52.238;13.438;2023-04-07T10:11:10;8.30;99.90
11474;DHT22;5793;52.238;13.438;2023-04-07T10:13:39;8.40;99.90
11474;DHT22;5793;52.238;13.438;2023-04-07T10:16:07;8.60;99.90
11474;DHT22;5793;52.238;13.438;2023-04-07T10:18:36;8.60;99.90
11474;DHT22;5793;52.238;13.438;2023-04-07T10:21:06;8.50;99.90
11474;DHT22;5793;52.238;13.438;2023-04-07T10:23:46;8.40;99.90
11474;DHT22;5793;52.238;13.438;2023-04-07T10:26:16;8.60;99.90
11474;DHT22;5793;52.238;13.438;2023-04-07T10:28:49;8.60;99.90
11474;DHT22;5793;52.238;13.438;2023-04-07T10:31:18;8.70;99.90
11474;DHT22;5793;52.238;13.438;2023-04-07T10:33:48;8.80;99.90
11474;DHT22;5793;52.238;13.438;2023-04-07T10:36:17;8.80;99.90
11474;DHT22;5793;52.238;13.438;2023-04-07T10:39:20;8.40;99.90
11474;DHT22;5793;52.238;13.438;2023-04-07T10:41:48;8.20;99.90
11474;DHT22;5793;52.238;13.438;2023-04-07T10:47:27;8.00;99.90
11474;DHT22;5793;52.238;13.438;2023-04-07T10:50:17;8.00;99.90
11474;DHT22;5793;52.238;13.438;2023-04-07T10:52:46;8.20;99.90
11474;DHT22;5793;52.238;13.438;2023-04-07T10:55:34;8.20;99.90
11474;DHT22;5793;52.238;13.438;2023-04-07T10:58:16;8.00;99.90
11474;DHT22;5793;52.238;13.438;2023-04-07T11:01:18;8.00;99.90
11474;DHT22;5793;52.238;13.438;2023-04-07T11:04:09;7.90;99.90
11474;DHT22;5793;52.238;13.438;2023-04-07T11:06:45;8.10;99.90
11474;DHT22;5793;52.238;13.438;2023-04-07T11:09:18;8.20;99.90
11474;DHT22;5793;52.238;13.438;2023-04-07T11:11:45;8.50;99.90
11474;DHT22;5793;52.238;13.438;2023-04-07T11:14:24;8.50;99.90
11474;DHT22;5793;52.238;13.438;2023-04-07T11:16:53;8.10;99.90
11474;DHT22;5793;52.238;13.438;2023-04-07T11:19:23;7.90;99.90
11474;DHT22;5793;52.238;13.438;2023-04-07T11:22:15;7.80;99.90
11474;DHT22;5793;52.238;13.438;2023-04-07T11:24:55;7.70;99.90
11474;DHT22;5793;52.238;13.438;2023-04-07T11:27:23;7.70;99.90
11474;DHT22;5793;52.238;13.438;2023-04-07T11:29:52;7.80;99.90
11474;DHT22;5793;52.238;13.438;2023-04-07T11:32:22;7.80;99.90
11474;DHT22;5793;52.238;13.438;2023-04-07T11:34:51;8.00;99.90
11474;DHT22;5793;52.238;13.438;2023-04-07T11:37:22;8.20;99.90
11474;DHT22;5793;52.238;13.438;2023-04-07T11:39:53;8.30;99.90
11474;DHT22;5793;52.238;13.438;2023-04-07T11:42:33;8.20;99.90
11474;DHT22;5793;52.238;13.438;2023-04-07T11:45:01;7.90;99.90
11474;DHT22;5793;52.238;13.438;2023-04-07T11:47:34;7.70;99.90
11474;DHT22;5793;52.238;13.438;2023-04-07T11:50:02;7.60;99.90
11474;DHT22;5793;52.238;13.438;2023-04-07T11:52:41;7.70;99.90
11474;DHT22;5793;52.238;13.438;2023-04-07T11:55:16;7.70;99.90
11474;DHT22;5793;52.238;13.438;2023-04-07T11:57:47;7.90;99.90
11474;DHT22;5793;52.238;13.438;2023-04-07T12:00:17;8.00;99.90
11474;DHT22;5793;52.238;13.438;2023-04-07T12:02:46;8.00;99.90
11474;DHT22;5793;52.238;13.438;2023-04-07T12:05:14;8.30;99.90
11474;DHT22;5793;52.238;13.438;2023-04-07T12:07:53;8.60;99.90
11474;DHT22;5793;52.238;13.438;2023-04-07T12:10:22;8.50;99.90
11474;DHT22;5793;52.238;13.438;2023-04-07T12:12:51;8.50;99.90
11474;DHT22;5793;52.238;13.438;2023-04-07T12:15:19;8.80;99.90
11474;DHT22;5793;52.238;13.438;2023-04-07T12:17:48;8.60;99.90
11474;DHT22;5793;52.238;13.438;2023-04-07T12:20:16;8.60;99.90
11474;DHT22;5793;52.238;13.438;2023-04-07T12:22:44;8.40;99.90
11474;DHT22;5793;52.238;13.438;2023-04-07T12:25:13;8.40;99.90
11474;DHT22;5793;52.238;13.438;2023-04-07T12:27:41;8.40;99.90
11474;DHT22;5793;52.238;13.438;2023-04-07T12:30:10;8.20;99.90
11474;DHT22;5793;52.238;13.438;2023-04-07T12:32:39;7.90;99.90
11474;DHT22;5793;52.238;13.438;2023-04-07T12:35:07;8.00;99.90
11474;DHT22;5793;52.238;13.438;2023-04-07T12:37:35;8.10;99.90
11474;DHT22;5793;52.238;13.438;2023-04-07T12:40:03;8.50;99.90
11474;DHT22;5793;52.238;13.438;2023-04-07T12:42:33;8.40;99.90
11474;DHT22;5793;52.238;13.438;2023-04-07T12:45:01;8.00;99.90
11474;DHT22;5793;52.238;13.438;2023-04-07T12:47:29;7.90;99.90
11474;DHT22;5793;52.238;13.438;2023-04-07T12:49:57;8.00;99.90
11474;DHT22;5793;52.238;13.438;2023-04-07T12:52:25;7.70;99.90
11474;DHT22;5793;52.238;13.438;2023-04-07T12:54:53;7.50;99.90
11474;DHT22;5793;52.238;13.438;2023-04-07T12:57:21;7.30;99.90
11474;DHT22;5793;52.238;13.438;2023-04-07T12:59:50;7.00;99.90
11474;DHT22;5793;52.238;13.438;2023-04-07T13:02:18;6.90;99.90
11474;DHT22;5793;52.238;13.438;2023-04-07T13:04:46;6.70;99.90
11474;DHT22;5793;52.238;13.438;2023-04-07T13:07:14;6.60;99.90
11474;DHT22;5793;52.238;13.438;2023-04-07T13:09:42;6.60;99.90
11474;DHT22;5793;52.238;13.438;2023-04-07T13:12:10;6.60;99.90
11474;DHT22;5793;52.238;13.438;2023-04-07T13:14:40;6.50;99.90
11474;DHT22;5793;52.238;13.438;2023-04-07T13:17:20;6.70;99.90
11474;DHT22;5793;52.238;13.438;2023-04-07T13:19:48;6.80;99.90
11474;DHT22;5793;52.238;13.438;2023-04-07T13:22:16;6.90;99.90
11474;DHT22;5793;52.238;13.438;2023-04-07T13:24:48;6.70;99.90
11474;DHT22;5793;52.238;13.438;2023-04-07T13:27:16;6.60;99.90
11474;DHT22;5793;52.238;13.438;2023-04-07T13:29:44;6.80;99.90
11474;DHT22;5793;52.238;13.438;2023-04-07T13:32:12;6.70;99.90
11474;DHT22;5793;52.238;13.438;2023-04-07T13:34:42;6.60;99.90
11474;DHT22;5793;52.238;13.438;2023-04-07T13:37:11;6.40;99.90
11474;DHT22;5793;52.238;13.438;2023-04-07T13:39:38;6.20;99.90
11474;DHT22;5793;52.238;13.438;2023-04-07T13:42:06;6.20;99.90
11474;DHT22;5793;52.238;13.438;2023-04-07T13:44:38;6.10;99.90
11474;DHT22;5793;52.238;13.438;2023-04-07T13:47:06;6.20;99.90
11474;DHT22;5793;52.238;13.438;2023-04-07T13:49:34;6.20;99.90
11474;DHT22;5793;52.238;13.438;2023-04-07T13:52:04;6.40;99.90
11474;DHT22;5793;52.238;13.438;2023-04-07T13:54:32;6.50;99.90
11474;DHT22;5793;52.238;13.438;2023-04-07T13:57:00;6.50;99.90
11474;DHT22;5793;52.238;13.438;2023-04-07T13:59:28;6.40;99.90
11474;DHT22;5793;52.238;13.438;2023-04-07T14:01:56;6.30;99.90
11474;DHT22;5793;52.238;13.438;2023-04-07T14:04:24;6.30;99.90
11474;DHT22;5793;52.238;13.438;2023-04-07T14:06:53;6.30;99.90
11474;DHT22;5793;52.238;13.438;2023-04-07T14:09:22;6.60;99.90
11474;DHT22;5793;52.238;13.438;2023-04-07T14:11:50;6.80;99.90
11474;DHT22;5793;52.238;13.438;2023-04-07T14:14:18;6.90;99.90
11474;DHT22;5793;52.238;13.438;2023-04-07T14:16:46;6.70;99.90
11474;DHT22;5793;52.238;13.438;2023-04-07T14:19:16;6.90;99.90
11474;DHT22;5793;52.238;13.438;2023-04-07T14:21:44;6.80;99.90
11474;DHT22;5793;52.238;13.438;2023-04-07T14:24:20;6.70;99.90
11474;DHT22;5793;52.238;13.438;2023-04-07T14:26:47;6.70;99.90
11474;DHT22;5793;52.238;13.438;2023-04-07T14:29:16;6.70;99.90
11474;DHT22;5793;52.238;13.438;2023-04-07T14:31:44;6.50;99.90
11474;DHT22;5793;52.238;13.438;2023-04-07T14:34:14;6.40;99.90
11474;DHT22;5793;52.238;13.438;2023-04-07T14:36:51;6.20;99.90
11474;DHT22;5793;52.238;13.438;2023-04-07T14:39:21;6.40;99.90
11474;DHT22;5793;52.238;13.438;2023-04-07T14:41:49;6.40;99.90
11474;DHT22;5793;52.238;13.438;2023-04-07T14:44:17;6.40;99.90
11474;DHT22;5793;52.238;13.438;2023-04-07T14:46:45;6.30;99.90
11474;DHT22;5793;52.238;13.438;2023-04-07T14:49:14;6.30;99.90
11474;DHT22;5793;52.238;13.438;2023-04-07T14:51:42;6.30;99.90
11474;DHT22;5793;52.238;13.438;2023-04-07T14:54:10;6.30;99.90
11474;DHT22;5793;52.238;13.438;2023-04-07T14:56:40;6.30;99.90
11474;DHT22;5793;52.238;13.438;2023-04-07T14:59:07;6.20;99.90
11474;DHT22;5793;52.238;13.438;2023-04-07T15:01:35;6.10;99.90
11474;DHT22;5793;52.238;13.438;2023-04-07T15:04:04;6.00;99.90
11474;DHT22;5793;52.238;13.438;2023-04-07T15:06:32;6.00;99.90
11474;DHT22;5793;52.238;13.438;2023-04-07T15:09:00;6.00;99.90
11474;DHT22;5793;52.238;13.438;2023-04-07T15:11:27;6.00;99.90
11474;DHT22;5793;52.238;13.438;2023-04-07T15:13:56;6.00;99.90
11474;DHT22;5793;52.238;13.438;2023-04-07T15:16:26;6.00;99.90
11474;DHT22;5793;52.238;13.438;2023-04-07T15:18:54;6.00;99.90
11474;DHT22;5793;52.238;13.438;2023-04-07T15:21:22;6.00;99.90
11474;DHT22;5793;52.238;13.438;2023-04-07T15:23:49;6.00;99.90
11474;DHT22;5793;52.238;13.438;2023-04-07T15:26:17;6.00;99.90
11474;DHT22;5793;52.238;13.438;2023-04-07T15:28:45;6.00;99.90
11474;DHT22;5793;52.238;13.438;2023-04-07T15:31:14;6.00;99.90
11474;DHT22;5793;52.238;13.438;2023-04-07T15:33:42;5.90;99.90
11474;DHT22;5793;52.238;13.438;2023-04-07T15:36:11;5.90;99.90
11474;DHT22;5793;52.238;13.438;2023-04-07T15:38:39;5.90;99.90
11474;DHT22;5793;52.238;13.438;2023-04-07T15:41:07;5.90;99.90
11474;DHT22;5793;52.238;13.438;2023-04-07T15:43:35;5.90;99.90
11474;DHT22;5793;52.238;13.438;2023-04-07T15:46:03;5.90;99.90
11474;DHT22;5793;52.238;13.438;2023-04-07T15:48:32;5.90;99.90
11474;DHT22;5793;52.238;13.438;2023-04-07T15:51:00;5.90;99.90
11474;DHT22;5793;52.238;13.438;2023-04-07T15:53:28;6.00;99.90
11474;DHT22;5793;52.238;13.438;2023-04-07T15:55:56;5.90;99.90
11474;DHT22;5793;52.238;13.438;2023-04-07T15:58:24;5.80;99.90